sensor_id;sensor_type;location;lat;lon;timestamp;P1;durP1;ratioP1;P2;durP2;ratioP2
25972;SDS011;13765;51.166;4.466;2022-10-16T00:01:27;2.05;;;0.88;;
25972;SDS011;13765;51.166;4.466;2022-10-16T00:03:55;2.50;;;1.35;;
25972;SDS011;13765;51.166;4.466;2022-10-16T00:06:22;1.63;;;1.10;;
25972;SDS011;13765;51.166;4.466;2022-10-16T00:08:54;1.70;;;1.00;;
25972;SDS011;13765;51.166;4.466;2022-10-16T00:11:24;2.38;;;1.08;;
25972;SDS011;13765;51.166;4.466;2022-10-16T00:13:54;5.20;;;1.70;;
25972;SDS011;13765;51.166;4.466;2022-10-16T00:16:22;3.53;;;1.30;;
25972;SDS011;13765;51.166;4.466;2022-10-16T00:18:48;2.25;;;0.93;;
25972;SDS011;13765;51.166;4.466;2022-10-16T00:21:18;2.20;;;1.02;;
25972;SDS011;13765;51.166;4.466;2022-10-16T00:23:45;5.85;;;1.23;;
25972;SDS011;13765;51.166;4.466;2022-10-16T00:26:12;6.03;;;1.40;;
25972;SDS011;13765;51.166;4.466;2022-10-16T00:28:39;2.80;;;0.98;;
25972;SDS011;13765;51.166;4.466;2022-10-16T00:31:06;3.30;;;1.58;;
25972;SDS011;13765;51.166;4.466;2022-10-16T00:33:34;2.65;;;0.95;;
25972;SDS011;13765;51.166;4.466;2022-10-16T00:36:03;2.85;;;1.00;;
25972;SDS011;13765;51.166;4.466;2022-10-16T00:38:32;2.63;;;1.27;;
25972;SDS011;13765;51.166;4.466;2022-10-16T00:40:59;10.23;;;1.38;;
25972;SDS011;13765;51.166;4.466;2022-10-16T00:48:44;2.15;;;1.02;;
25972;SDS011;13765;51.166;4.466;2022-10-16T00:51:23;1.25;;;0.80;;
25972;SDS011;13765;51.166;4.466;2022-10-16T00:54:08;1.65;;;1.02;;
25972;SDS011;13765;51.166;4.466;2022-10-16T00:56:44;3.90;;;1.33;;
25972;SDS011;13765;51.166;4.466;2022-10-16T00:59:18;1.17;;;0.85;;
25972;SDS011;13765;51.166;4.466;2022-10-16T01:01:56;4.25;;;1.20;;
25972;SDS011;13765;51.166;4.466;2022-10-16T01:04:23;1.95;;;0.70;;
25972;SDS011;13765;51.166;4.466;2022-10-16T01:09:33;2.42;;;0.93;;
25972;SDS011;13765;51.166;4.466;2022-10-16T01:12:10;1.20;;;0.50;;
25972;SDS011;13765;51.166;4.466;2022-10-16T01:18:00;1.25;;;0.85;;
25972;SDS011;13765;51.166;4.466;2022-10-16T01:20:31;3.28;;;1.15;;
25972;SDS011;13765;51.166;4.466;2022-10-16T01:28:42;1.23;;;0.70;;
25972;SDS011;13765;51.166;4.466;2022-10-16T01:31:19;7.40;;;1.35;;
25972;SDS011;13765;51.166;4.466;2022-10-16T01:33:56;4.47;;;1.35;;
25972;SDS011;13765;51.166;4.466;2022-10-16T01:36:39;2.95;;;0.88;;
25972;SDS011;13765;51.166;4.466;2022-10-16T01:39:10;1.00;;;0.80;;
25972;SDS011;13765;51.166;4.466;2022-10-16T01:41:44;2.30;;;0.75;;
25972;SDS011;13765;51.166;4.466;2022-10-16T01:44:16;3.63;;;0.98;;
25972;SDS011;13765;51.166;4.466;2022-10-16T01:46:48;3.95;;;1.02;;
25972;SDS011;13765;51.166;4.466;2022-10-16T01:49:21;2.10;;;1.15;;
25972;SDS011;13765;51.166;4.466;2022-10-16T01:51:52;1.45;;;0.98;;
25972;SDS011;13765;51.166;4.466;2022-10-16T01:54:24;7.15;;;1.00;;
25972;SDS011;13765;51.166;4.466;2022-10-16T01:56:58;4.13;;;1.17;;
25972;SDS011;13765;51.166;4.466;2022-10-16T01:59:29;4.20;;;1.45;;
25972;SDS011;13765;51.166;4.466;2022-10-16T02:02:01;3.10;;;1.25;;
25972;SDS011;13765;51.166;4.466;2022-10-16T02:04:31;2.92;;;0.80;;
25972;SDS011;13765;51.166;4.466;2022-10-16T02:07:01;4.55;;;1.15;;
25972;SDS011;13765;51.166;4.466;2022-10-16T02:09:30;3.00;;;1.20;;
25972;SDS011;13765;51.166;4.466;2022-10-16T02:12:00;6.43;;;1.05;;
25972;SDS011;13765;51.166;4.466;2022-10-16T02:14:38;1.05;;;0.65;;
25972;SDS011;13765;51.166;4.466;2022-10-16T02:17:11;6.28;;;1.00;;
25972;SDS011;13765;51.166;4.466;2022-10-16T02:19:39;1.98;;;0.80;;
25972;SDS011;13765;51.166;4.466;2022-10-16T02:22:08;7.13;;;0.90;;
25972;SDS011;13765;51.166;4.466;2022-10-16T02:27:32;3.60;;;1.48;;
25972;SDS011;13765;51.166;4.466;2022-10-16T02:32:34;3.88;;;1.05;;
25972;SDS011;13765;51.166;4.466;2022-10-16T02:35:03;2.13;;;0.77;;
25972;SDS011;13765;51.166;4.466;2022-10-16T02:37:33;5.63;;;1.60;;
25972;SDS011;13765;51.166;4.466;2022-10-16T02:39:59;2.08;;;0.85;;
25972;SDS011;13765;51.166;4.466;2022-10-16T02:42:33;1.88;;;1.00;;
25972;SDS011;13765;51.166;4.466;2022-10-16T02:45:05;7.28;;;1.33;;
25972;SDS011;13765;51.166;4.466;2022-10-16T02:47:34;4.18;;;1.30;;
25972;SDS011;13765;51.166;4.466;2022-10-16T02:50:00;3.95;;;1.60;;
25972;SDS011;13765;51.166;4.466;2022-10-16T02:52:26;1.95;;;1.02;;
25972;SDS011;13765;51.166;4.466;2022-10-16T02:54:55;3.50;;;1.90;;
25972;SDS011;13765;51.166;4.466;2022-10-16T02:57:23;5.45;;;1.75;;
25972;SDS011;13765;51.166;4.466;2022-10-16T02:59:53;3.00;;;0.98;;
25972;SDS011;13765;51.166;4.466;2022-10-16T03:02:19;4.10;;;1.60;;
25972;SDS011;13765;51.166;4.466;2022-10-16T03:04:45;2.47;;;1.40;;
25972;SDS011;13765;51.166;4.466;2022-10-16T03:07:11;5.03;;;1.38;;
25972;SDS011;13765;51.166;4.466;2022-10-16T03:09:39;6.75;;;1.85;;
25972;SDS011;13765;51.166;4.466;2022-10-16T03:12:07;5.18;;;1.77;;
25972;SDS011;13765;51.166;4.466;2022-10-16T03:14:36;4.68;;;1.63;;
25972;SDS011;13765;51.166;4.466;2022-10-16T03:17:05;5.25;;;1.83;;
25972;SDS011;13765;51.166;4.466;2022-10-16T03:19:33;6.50;;;1.23;;
25972;SDS011;13765;51.166;4.466;2022-10-16T03:22:00;3.17;;;1.05;;
25972;SDS011;13765;51.166;4.466;2022-10-16T03:24:26;2.08;;;1.25;;
25972;SDS011;13765;51.166;4.466;2022-10-16T03:26:57;2.28;;;1.38;;
25972;SDS011;13765;51.166;4.466;2022-10-16T03:29:23;3.90;;;1.23;;
25972;SDS011;13765;51.166;4.466;2022-10-16T03:31:53;3.83;;;1.33;;
25972;SDS011;13765;51.166;4.466;2022-10-16T03:34:19;3.70;;;2.15;;
25972;SDS011;13765;51.166;4.466;2022-10-16T03:36:44;3.10;;;1.20;;
25972;SDS011;13765;51.166;4.466;2022-10-16T03:39:13;3.45;;;1.27;;
25972;SDS011;13765;51.166;4.466;2022-10-16T03:41:39;5.65;;;1.40;;
25972;SDS011;13765;51.166;4.466;2022-10-16T03:44:04;2.63;;;1.10;;
25972;SDS011;13765;51.166;4.466;2022-10-16T03:46:32;2.67;;;1.52;;
25972;SDS011;13765;51.166;4.466;2022-10-16T03:49:00;3.80;;;1.60;;
25972;SDS011;13765;51.166;4.466;2022-10-16T03:51:31;4.60;;;2.08;;
25972;SDS011;13765;51.166;4.466;2022-10-16T03:53:57;3.42;;;1.52;;
25972;SDS011;13765;51.166;4.466;2022-10-16T03:56:23;6.78;;;1.73;;
25972;SDS011;13765;51.166;4.466;2022-10-16T03:58:49;5.22;;;1.50;;
25972;SDS011;13765;51.166;4.466;2022-10-16T04:01:17;3.50;;;1.80;;
25972;SDS011;13765;51.166;4.466;2022-10-16T04:03:43;3.88;;;1.55;;
25972;SDS011;13765;51.166;4.466;2022-10-16T04:06:09;4.53;;;1.33;;
25972;SDS011;13765;51.166;4.466;2022-10-16T04:08:35;4.00;;;1.55;;
25972;SDS011;13765;51.166;4.466;2022-10-16T04:11:02;7.70;;;1.90;;
25972;SDS011;13765;51.166;4.466;2022-10-16T04:13:30;1.70;;;1.10;;
25972;SDS011;13765;51.166;4.466;2022-10-16T04:15:56;4.25;;;1.55;;
25972;SDS011;13765;51.166;4.466;2022-10-16T04:18:22;4.45;;;1.42;;
25972;SDS011;13765;51.166;4.466;2022-10-16T04:20:48;6.57;;;1.30;;
25972;SDS011;13765;51.166;4.466;2022-10-16T04:23:14;3.78;;;1.55;;
25972;SDS011;13765;51.166;4.466;2022-10-16T04:25:42;4.57;;;1.60;;
25972;SDS011;13765;51.166;4.466;2022-10-16T04:28:11;4.30;;;1.40;;
25972;SDS011;13765;51.166;4.466;2022-10-16T04:30:39;2.10;;;1.10;;
25972;SDS011;13765;51.166;4.466;2022-10-16T04:33:05;2.70;;;1.15;;
25972;SDS011;13765;51.166;4.466;2022-10-16T04:35:30;4.13;;;1.55;;
25972;SDS011;13765;51.166;4.466;2022-10-16T04:37:59;3.80;;;1.45;;
25972;SDS011;13765;51.166;4.466;2022-10-16T04:40:25;2.42;;;1.42;;
25972;SDS011;13765;51.166;4.466;2022-10-16T04:42:51;3.17;;;1.30;;
25972;SDS011;13765;51.166;4.466;2022-10-16T04:45:19;3.42;;;1.65;;
25972;SDS011;13765;51.166;4.466;2022-10-16T04:47:44;8.93;;;1.48;;
25972;SDS011;13765;51.166;4.466;2022-10-16T04:50:10;8.32;;;1.60;;
25972;SDS011;13765;51.166;4.466;2022-10-16T04:52:38;2.75;;;1.10;;
25972;SDS011;13765;51.166;4.466;2022-10-16T04:55:04;3.92;;;1.70;;
25972;SDS011;13765;51.166;4.466;2022-10-16T04:57:31;3.63;;;1.67;;
25972;SDS011;13765;51.166;4.466;2022-10-16T04:59:58;2.75;;;1.08;;
25972;SDS011;13765;51.166;4.466;2022-10-16T05:02:24;8.05;;;2.53;;
25972;SDS011;13765;51.166;4.466;2022-10-16T05:04:50;2.70;;;1.25;;
25972;SDS011;13765;51.166;4.466;2022-10-16T05:07:17;3.40;;;1.40;;
25972;SDS011;13765;51.166;4.466;2022-10-16T05:09:43;6.38;;;1.73;;
25972;SDS011;13765;51.166;4.466;2022-10-16T05:12:09;2.17;;;1.02;;
25972;SDS011;13765;51.166;4.466;2022-10-16T05:14:35;5.18;;;2.20;;
25972;SDS011;13765;51.166;4.466;2022-10-16T05:17:01;2.65;;;1.40;;
25972;SDS011;13765;51.166;4.466;2022-10-16T05:19:27;3.78;;;1.77;;
25972;SDS011;13765;51.166;4.466;2022-10-16T05:21:56;6.85;;;2.63;;
25972;SDS011;13765;51.166;4.466;2022-10-16T05:24:22;4.10;;;1.75;;
25972;SDS011;13765;51.166;4.466;2022-10-16T05:26:52;5.65;;;2.20;;
25972;SDS011;13765;51.166;4.466;2022-10-16T05:29:22;7.43;;;1.48;;
25972;SDS011;13765;51.166;4.466;2022-10-16T05:31:51;4.80;;;1.65;;
25972;SDS011;13765;51.166;4.466;2022-10-16T05:34:18;4.28;;;1.30;;
25972;SDS011;13765;51.166;4.466;2022-10-16T05:36:47;4.50;;;1.67;;
25972;SDS011;13765;51.166;4.466;2022-10-16T05:39:14;4.00;;;1.75;;
25972;SDS011;13765;51.166;4.466;2022-10-16T05:41:41;6.88;;;2.17;;
25972;SDS011;13765;51.166;4.466;2022-10-16T05:44:09;5.47;;;1.58;;
25972;SDS011;13765;51.166;4.466;2022-10-16T05:46:36;5.90;;;1.77;;
25972;SDS011;13765;51.166;4.466;2022-10-16T05:49:02;6.82;;;1.55;;
25972;SDS011;13765;51.166;4.466;2022-10-16T05:51:33;4.32;;;1.77;;
25972;SDS011;13765;51.166;4.466;2022-10-16T05:54:00;5.53;;;2.10;;
25972;SDS011;13765;51.166;4.466;2022-10-16T05:56:26;2.13;;;1.25;;
25972;SDS011;13765;51.166;4.466;2022-10-16T05:58:54;2.45;;;1.45;;
25972;SDS011;13765;51.166;4.466;2022-10-16T06:01:23;3.78;;;1.48;;
25972;SDS011;13765;51.166;4.466;2022-10-16T06:03:50;6.47;;;1.55;;
25972;SDS011;13765;51.166;4.466;2022-10-16T06:06:18;8.50;;;1.60;;
25972;SDS011;13765;51.166;4.466;2022-10-16T06:08:46;8.45;;;1.75;;
25972;SDS011;13765;51.166;4.466;2022-10-16T06:11:17;3.70;;;1.40;;
25972;SDS011;13765;51.166;4.466;2022-10-16T06:13:52;5.43;;;1.73;;
25972;SDS011;13765;51.166;4.466;2022-10-16T06:16:25;5.25;;;1.77;;
25972;SDS011;13765;51.166;4.466;2022-10-16T06:18:52;5.70;;;1.92;;
25972;SDS011;13765;51.166;4.466;2022-10-16T06:21:20;9.23;;;2.38;;
25972;SDS011;13765;51.166;4.466;2022-10-16T06:23:52;4.43;;;1.75;;
25972;SDS011;13765;51.166;4.466;2022-10-16T06:26:20;3.65;;;1.92;;
25972;SDS011;13765;51.166;4.466;2022-10-16T06:28:55;3.95;;;1.70;;
25972;SDS011;13765;51.166;4.466;2022-10-16T06:31:24;10.07;;;1.98;;
25972;SDS011;13765;51.166;4.466;2022-10-16T06:33:57;4.60;;;1.60;;
25972;SDS011;13765;51.166;4.466;2022-10-16T06:36:29;6.85;;;1.52;;
25972;SDS011;13765;51.166;4.466;2022-10-16T06:38:55;2.33;;;1.20;;
25972;SDS011;13765;51.166;4.466;2022-10-16T06:41:23;5.35;;;1.70;;
25972;SDS011;13765;51.166;4.466;2022-10-16T06:43:50;3.47;;;1.63;;
25972;SDS011;13765;51.166;4.466;2022-10-16T06:46:18;3.50;;;1.33;;
25972;SDS011;13765;51.166;4.466;2022-10-16T06:48:45;4.38;;;1.98;;
25972;SDS011;13765;51.166;4.466;2022-10-16T06:51:17;3.80;;;1.92;;
25972;SDS011;13765;51.166;4.466;2022-10-16T06:53:45;3.83;;;1.65;;
25972;SDS011;13765;51.166;4.466;2022-10-16T06:56:18;5.40;;;1.60;;
25972;SDS011;13765;51.166;4.466;2022-10-16T06:58:46;5.05;;;1.60;;
25972;SDS011;13765;51.166;4.466;2022-10-16T07:01:14;3.00;;;1.55;;
25972;SDS011;13765;51.166;4.466;2022-10-16T07:03:41;3.03;;;1.20;;
25972;SDS011;13765;51.166;4.466;2022-10-16T07:06:11;5.80;;;2.15;;
25972;SDS011;13765;51.166;4.466;2022-10-16T07:08:42;5.32;;;1.40;;
25972;SDS011;13765;51.166;4.466;2022-10-16T07:11:12;3.20;;;1.92;;
25972;SDS011;13765;51.166;4.466;2022-10-16T07:13:42;4.45;;;1.92;;
25972;SDS011;13765;51.166;4.466;2022-10-16T07:16:15;2.05;;;1.50;;
25972;SDS011;13765;51.166;4.466;2022-10-16T07:18:43;3.10;;;1.48;;
25972;SDS011;13765;51.166;4.466;2022-10-16T07:21:30;3.03;;;1.75;;
25972;SDS011;13765;51.166;4.466;2022-10-16T07:24:00;4.40;;;1.38;;
25972;SDS011;13765;51.166;4.466;2022-10-16T07:26:28;4.15;;;1.58;;
25972;SDS011;13765;51.166;4.466;2022-10-16T07:28:57;5.25;;;1.60;;
25972;SDS011;13765;51.166;4.466;2022-10-16T07:31:23;4.35;;;1.33;;
25972;SDS011;13765;51.166;4.466;2022-10-16T07:33:51;6.15;;;1.65;;
25972;SDS011;13765;51.166;4.466;2022-10-16T07:36:17;2.90;;;1.08;;
25972;SDS011;13765;51.166;4.466;2022-10-16T07:38:48;5.35;;;1.90;;
25972;SDS011;13765;51.166;4.466;2022-10-16T07:41:18;6.03;;;2.03;;
25972;SDS011;13765;51.166;4.466;2022-10-16T07:43:47;12.55;;;1.92;;
25972;SDS011;13765;51.166;4.466;2022-10-16T07:46:17;7.78;;;1.65;;
25972;SDS011;13765;51.166;4.466;2022-10-16T07:48:47;3.20;;;1.50;;
25972;SDS011;13765;51.166;4.466;2022-10-16T07:51:20;3.95;;;1.55;;
25972;SDS011;13765;51.166;4.466;2022-10-16T07:53:52;4.22;;;1.67;;
25972;SDS011;13765;51.166;4.466;2022-10-16T07:56:18;2.53;;;1.25;;
25972;SDS011;13765;51.166;4.466;2022-10-16T07:58:44;5.32;;;1.65;;
25972;SDS011;13765;51.166;4.466;2022-10-16T08:01:15;7.00;;;1.45;;
25972;SDS011;13765;51.166;4.466;2022-10-16T08:03:42;3.10;;;1.42;;
25972;SDS011;13765;51.166;4.466;2022-10-16T08:06:10;3.22;;;1.35;;
25972;SDS011;13765;51.166;4.466;2022-10-16T08:08:36;2.28;;;1.20;;
25972;SDS011;13765;51.166;4.466;2022-10-16T08:11:02;2.72;;;1.33;;
25972;SDS011;13765;51.166;4.466;2022-10-16T08:13:31;2.88;;;1.40;;
25972;SDS011;13765;51.166;4.466;2022-10-16T08:15:57;11.15;;;1.38;;
25972;SDS011;13765;51.166;4.466;2022-10-16T08:18:23;5.43;;;1.20;;
25972;SDS011;13765;51.166;4.466;2022-10-16T08:20:55;4.00;;;1.63;;
25972;SDS011;13765;51.166;4.466;2022-10-16T08:23:22;4.55;;;1.45;;
25972;SDS011;13765;51.166;4.466;2022-10-16T08:25:51;5.72;;;1.55;;
25972;SDS011;13765;51.166;4.466;2022-10-16T08:28:18;4.45;;;1.30;;
25972;SDS011;13765;51.166;4.466;2022-10-16T08:30:44;4.32;;;1.30;;
25972;SDS011;13765;51.166;4.466;2022-10-16T08:33:10;7.63;;;2.05;;
25972;SDS011;13765;51.166;4.466;2022-10-16T08:35:36;5.93;;;1.70;;
25972;SDS011;13765;51.166;4.466;2022-10-16T08:38:03;5.43;;;1.30;;
25972;SDS011;13765;51.166;4.466;2022-10-16T08:40:35;3.75;;;1.30;;
25972;SDS011;13765;51.166;4.466;2022-10-16T08:45:46;5.60;;;0.93;;
25972;SDS011;13765;51.166;4.466;2022-10-16T08:48:43;3.70;;;1.15;;
25972;SDS011;13765;51.166;4.466;2022-10-16T08:51:17;5.50;;;1.52;;
25972;SDS011;13765;51.166;4.466;2022-10-16T08:54:06;2.60;;;1.48;;
25972;SDS011;13765;51.166;4.466;2022-10-16T08:56:48;3.70;;;1.33;;
25972;SDS011;13765;51.166;4.466;2022-10-16T08:59:13;5.82;;;1.00;;
25972;SDS011;13765;51.166;4.466;2022-10-16T09:01:44;4.75;;;1.30;;
25972;SDS011;13765;51.166;4.466;2022-10-16T09:06:51;5.28;;;1.40;;
25972;SDS011;13765;51.166;4.466;2022-10-16T09:09:58;3.97;;;1.13;;
25972;SDS011;13765;51.166;4.466;2022-10-16T09:23:27;4.32;;;1.42;;
25972;SDS011;13765;51.166;4.466;2022-10-16T09:25:55;1.02;;;0.63;;
25972;SDS011;13765;51.166;4.466;2022-10-16T09:28:23;5.47;;;1.08;;
25972;SDS011;13765;51.166;4.466;2022-10-16T09:30:50;7.10;;;1.40;;
25972;SDS011;13765;51.166;4.466;2022-10-16T09:33:19;9.63;;;1.20;;
25972;SDS011;13765;51.166;4.466;2022-10-16T09:35:52;3.40;;;1.33;;
25972;SDS011;13765;51.166;4.466;2022-10-16T09:38:25;3.58;;;1.20;;
25972;SDS011;13765;51.166;4.466;2022-10-16T09:40:54;7.53;;;1.27;;
25972;SDS011;13765;51.166;4.466;2022-10-16T09:43:23;7.35;;;1.17;;
25972;SDS011;13765;51.166;4.466;2022-10-16T09:45:57;6.93;;;1.55;;
25972;SDS011;13765;51.166;4.466;2022-10-16T09:48:29;8.93;;;1.42;;
25972;SDS011;13765;51.166;4.466;2022-10-16T09:51:06;3.92;;;1.08;;
25972;SDS011;13765;51.166;4.466;2022-10-16T09:53:46;6.50;;;0.93;;
25972;SDS011;13765;51.166;4.466;2022-10-16T09:56:20;4.95;;;1.02;;
25972;SDS011;13765;51.166;4.466;2022-10-16T09:58:54;4.25;;;1.05;;
25972;SDS011;13765;51.166;4.466;2022-10-16T10:01:28;1.77;;;0.88;;
25972;SDS011;13765;51.166;4.466;2022-10-16T10:03:57;8.15;;;1.30;;
25972;SDS011;13765;51.166;4.466;2022-10-16T10:06:28;5.35;;;1.02;;
25972;SDS011;13765;51.166;4.466;2022-10-16T10:09:16;7.40;;;0.95;;
25972;SDS011;13765;51.166;4.466;2022-10-16T10:11:52;6.72;;;1.13;;
25972;SDS011;13765;51.166;4.466;2022-10-16T10:14:23;8.55;;;1.35;;
25972;SDS011;13765;51.166;4.466;2022-10-16T10:17:46;4.32;;;1.60;;
25972;SDS011;13765;51.166;4.466;2022-10-16T10:19:53;5.82;;;1.63;;
25972;SDS011;13765;51.166;4.466;2022-10-16T10:27:34;5.68;;;1.58;;
25972;SDS011;13765;51.166;4.466;2022-10-16T10:35:22;1.83;;;0.88;;
25972;SDS011;13765;51.166;4.466;2022-10-16T10:38:06;1.42;;;0.90;;
25972;SDS011;13765;51.166;4.466;2022-10-16T10:40:52;9.98;;;1.38;;
25972;SDS011;13765;51.166;4.466;2022-10-16T10:46:16;4.63;;;1.20;;
25972;SDS011;13765;51.166;4.466;2022-10-16T10:49:04;5.20;;;1.02;;
25972;SDS011;13765;51.166;4.466;2022-10-16T10:51:46;5.68;;;1.08;;
25972;SDS011;13765;51.166;4.466;2022-10-16T10:54:41;6.30;;;1.05;;
25972;SDS011;13765;51.166;4.466;2022-10-16T10:57:52;5.90;;;1.13;;
25972;SDS011;13765;51.166;4.466;2022-10-16T11:00:28;6.35;;;2.15;;
25972;SDS011;13765;51.166;4.466;2022-10-16T11:06:14;9.15;;;2.40;;
25972;SDS011;13765;51.166;4.466;2022-10-16T11:08:43;9.23;;;1.27;;
25972;SDS011;13765;51.166;4.466;2022-10-16T11:11:25;2.83;;;1.25;;
25972;SDS011;13765;51.166;4.466;2022-10-16T11:16:40;1.90;;;0.60;;
25972;SDS011;13765;51.166;4.466;2022-10-16T11:24:51;3.33;;;0.68;;
25972;SDS011;13765;51.166;4.466;2022-10-16T11:30:26;4.75;;;1.17;;
25972;SDS011;13765;51.166;4.466;2022-10-16T11:36:00;14.65;;;2.50;;
25972;SDS011;13765;51.166;4.466;2022-10-16T11:38:48;5.28;;;1.50;;
25972;SDS011;13765;51.166;4.466;2022-10-16T11:41:26;7.57;;;1.23;;
25972;SDS011;13765;51.166;4.466;2022-10-16T11:50:13;13.10;;;1.98;;
25972;SDS011;13765;51.166;4.466;2022-10-16T11:55:48;7.10;;;1.42;;
25972;SDS011;13765;51.166;4.466;2022-10-16T11:58:25;5.25;;;1.42;;
25972;SDS011;13765;51.166;4.466;2022-10-16T12:01:01;9.88;;;1.67;;
25972;SDS011;13765;51.166;4.466;2022-10-16T12:09:31;1.38;;;0.63;;
25972;SDS011;13765;51.166;4.466;2022-10-16T12:12:02;4.45;;;0.93;;
25972;SDS011;13765;51.166;4.466;2022-10-16T12:14:37;4.22;;;1.25;;
25972;SDS011;13765;51.166;4.466;2022-10-16T12:17:26;5.05;;;1.20;;
25972;SDS011;13765;51.166;4.466;2022-10-16T12:22:47;3.75;;;0.90;;
25972;SDS011;13765;51.166;4.466;2022-10-16T12:28:00;2.42;;;0.80;;
25972;SDS011;13765;51.166;4.466;2022-10-16T12:30:27;4.15;;;1.02;;
25972;SDS011;13765;51.166;4.466;2022-10-16T12:32:56;7.65;;;1.33;;
25972;SDS011;13765;51.166;4.466;2022-10-16T12:35:31;2.58;;;0.73;;
25972;SDS011;13765;51.166;4.466;2022-10-16T12:41:01;3.40;;;1.08;;
25972;SDS011;13765;51.166;4.466;2022-10-16T12:43:40;3.55;;;0.88;;
25972;SDS011;13765;51.166;4.466;2022-10-16T12:48:36;1.67;;;0.70;;
25972;SDS011;13765;51.166;4.466;2022-10-16T12:54:01;6.05;;;1.17;;
25972;SDS011;13765;51.166;4.466;2022-10-16T12:56:51;5.18;;;0.90;;
25972;SDS011;13765;51.166;4.466;2022-10-16T12:59:33;1.60;;;0.95;;
25972;SDS011;13765;51.166;4.466;2022-10-16T13:10:55;2.55;;;0.68;;
25972;SDS011;13765;51.166;4.466;2022-10-16T13:16:50;1.58;;;0.70;;
25972;SDS011;13765;51.166;4.466;2022-10-16T13:19:53;3.97;;;0.82;;
25972;SDS011;13765;51.166;4.466;2022-10-16T13:22:52;0.50;;;0.32;;
25972;SDS011;13765;51.166;4.466;2022-10-16T13:28:21;3.33;;;1.35;;
25972;SDS011;13765;51.166;4.466;2022-10-16T13:30:53;4.15;;;1.10;;
25972;SDS011;13765;51.166;4.466;2022-10-16T13:36:17;5.57;;;1.00;;
25972;SDS011;13765;51.166;4.466;2022-10-16T13:39:06;7.15;;;0.82;;
25972;SDS011;13765;51.166;4.466;2022-10-16T13:41:35;1.90;;;0.70;;
25972;SDS011;13765;51.166;4.466;2022-10-16T13:44:03;1.55;;;0.73;;
25972;SDS011;13765;51.166;4.466;2022-10-16T13:46:30;3.13;;;0.95;;
25972;SDS011;13765;51.166;4.466;2022-10-16T13:51:30;5.82;;;1.00;;
25972;SDS011;13765;51.166;4.466;2022-10-16T13:53:59;3.25;;;0.65;;
25972;SDS011;13765;51.166;4.466;2022-10-16T13:56:28;5.72;;;1.20;;
25972;SDS011;13765;51.166;4.466;2022-10-16T13:58:59;2.50;;;0.55;;
25972;SDS011;13765;51.166;4.466;2022-10-16T14:01:30;5.90;;;1.33;;
25972;SDS011;13765;51.166;4.466;2022-10-16T14:04:06;6.50;;;0.80;;
25972;SDS011;13765;51.166;4.466;2022-10-16T14:06:40;1.52;;;0.65;;
25972;SDS011;13765;51.166;4.466;2022-10-16T14:09:29;3.67;;;0.93;;
25972;SDS011;13765;51.166;4.466;2022-10-16T14:12:03;4.40;;;0.80;;
25972;SDS011;13765;51.166;4.466;2022-10-16T14:14:35;4.82;;;0.70;;
25972;SDS011;13765;51.166;4.466;2022-10-16T14:17:27;3.25;;;0.70;;
25972;SDS011;13765;51.166;4.466;2022-10-16T14:19:57;1.98;;;0.77;;
25972;SDS011;13765;51.166;4.466;2022-10-16T14:22:43;5.07;;;0.85;;
25972;SDS011;13765;51.166;4.466;2022-10-16T14:28:02;6.55;;;1.20;;
25972;SDS011;13765;51.166;4.466;2022-10-16T14:30:51;9.82;;;1.58;;
25972;SDS011;13765;51.166;4.466;2022-10-16T14:38:57;1.95;;;0.93;;
25972;SDS011;13765;51.166;4.466;2022-10-16T14:41:32;2.70;;;0.90;;
25972;SDS011;13765;51.166;4.466;2022-10-16T14:44:11;0.60;;;0.60;;
25972;SDS011;13765;51.166;4.466;2022-10-16T14:46:38;6.28;;;1.02;;
25972;SDS011;13765;51.166;4.466;2022-10-16T14:51:35;4.72;;;0.73;;
25972;SDS011;13765;51.166;4.466;2022-10-16T14:54:05;4.28;;;0.52;;
25972;SDS011;13765;51.166;4.466;2022-10-16T14:56:34;6.43;;;1.20;;
25972;SDS011;13765;51.166;4.466;2022-10-16T15:01:55;1.42;;;0.47;;
25972;SDS011;13765;51.166;4.466;2022-10-16T15:04:21;3.83;;;0.70;;
25972;SDS011;13765;51.166;4.466;2022-10-16T15:06:49;3.70;;;0.90;;
25972;SDS011;13765;51.166;4.466;2022-10-16T15:09:16;0.63;;;0.40;;
25972;SDS011;13765;51.166;4.466;2022-10-16T15:11:41;6.15;;;1.08;;
25972;SDS011;13765;51.166;4.466;2022-10-16T15:14:11;4.68;;;0.68;;
25972;SDS011;13765;51.166;4.466;2022-10-16T15:16:39;8.65;;;0.93;;
25972;SDS011;13765;51.166;4.466;2022-10-16T15:19:07;4.95;;;1.25;;
25972;SDS011;13765;51.166;4.466;2022-10-16T15:21:36;3.55;;;0.98;;
25972;SDS011;13765;51.166;4.466;2022-10-16T15:24:08;5.07;;;1.05;;
25972;SDS011;13765;51.166;4.466;2022-10-16T15:26:36;3.83;;;1.00;;
25972;SDS011;13765;51.166;4.466;2022-10-16T15:29:02;3.40;;;1.38;;
25972;SDS011;13765;51.166;4.466;2022-10-16T15:31:28;4.45;;;1.45;;
25972;SDS011;13765;51.166;4.466;2022-10-16T15:33:54;7.00;;;1.73;;
25972;SDS011;13765;51.166;4.466;2022-10-16T15:36:27;11.05;;;3.05;;
25972;SDS011;13765;51.166;4.466;2022-10-16T15:38:53;8.05;;;1.95;;
25972;SDS011;13765;51.166;4.466;2022-10-16T15:41:20;7.35;;;2.10;;
25972;SDS011;13765;51.166;4.466;2022-10-16T15:43:50;5.47;;;1.52;;
25972;SDS011;13765;51.166;4.466;2022-10-16T15:46:18;5.97;;;1.80;;
25972;SDS011;13765;51.166;4.466;2022-10-16T15:48:48;5.88;;;1.65;;
25972;SDS011;13765;51.166;4.466;2022-10-16T15:51:14;6.05;;;1.27;;
25972;SDS011;13765;51.166;4.466;2022-10-16T15:53:43;2.47;;;0.95;;
25972;SDS011;13765;51.166;4.466;2022-10-16T15:56:11;2.42;;;0.73;;
25972;SDS011;13765;51.166;4.466;2022-10-16T15:58:39;5.05;;;1.48;;
25972;SDS011;13765;51.166;4.466;2022-10-16T16:01:06;5.40;;;1.70;;
25972;SDS011;13765;51.166;4.466;2022-10-16T16:03:37;1.38;;;1.10;;
25972;SDS011;13765;51.166;4.466;2022-10-16T16:06:06;7.80;;;1.33;;
25972;SDS011;13765;51.166;4.466;2022-10-16T16:08:34;5.55;;;1.55;;
25972;SDS011;13765;51.166;4.466;2022-10-16T16:11:03;2.33;;;1.13;;
25972;SDS011;13765;51.166;4.466;2022-10-16T16:13:33;5.03;;;1.98;;
25972;SDS011;13765;51.166;4.466;2022-10-16T16:16:01;13.00;;;2.75;;
25972;SDS011;13765;51.166;4.466;2022-10-16T16:18:35;8.07;;;2.35;;
25972;SDS011;13765;51.166;4.466;2022-10-16T16:21:01;5.65;;;1.40;;
25972;SDS011;13765;51.166;4.466;2022-10-16T16:23:28;11.15;;;2.50;;
25972;SDS011;13765;51.166;4.466;2022-10-16T16:26:06;11.38;;;2.50;;
25972;SDS011;13765;51.166;4.466;2022-10-16T16:28:36;7.47;;;1.88;;
25972;SDS011;13765;51.166;4.466;2022-10-16T16:31:08;9.05;;;2.67;;
25972;SDS011;13765;51.166;4.466;2022-10-16T16:33:36;7.05;;;2.42;;
25972;SDS011;13765;51.166;4.466;2022-10-16T16:36:05;10.38;;;2.67;;
25972;SDS011;13765;51.166;4.466;2022-10-16T16:38:32;14.10;;;2.97;;
25972;SDS011;13765;51.166;4.466;2022-10-16T16:41:10;8.80;;;2.50;;
25972;SDS011;13765;51.166;4.466;2022-10-16T16:43:45;6.63;;;1.90;;
25972;SDS011;13765;51.166;4.466;2022-10-16T16:46:16;10.20;;;2.70;;
25972;SDS011;13765;51.166;4.466;2022-10-16T16:48:42;8.77;;;3.00;;
25972;SDS011;13765;51.166;4.466;2022-10-16T16:51:11;7.00;;;2.10;;
25972;SDS011;13765;51.166;4.466;2022-10-16T16:53:45;6.65;;;2.47;;
25972;SDS011;13765;51.166;4.466;2022-10-16T16:56:12;15.60;;;2.83;;
25972;SDS011;13765;51.166;4.466;2022-10-16T16:58:41;6.82;;;2.60;;
25972;SDS011;13765;51.166;4.466;2022-10-16T17:01:10;9.32;;;2.17;;
25972;SDS011;13765;51.166;4.466;2022-10-16T17:03:36;6.32;;;2.17;;
25972;SDS011;13765;51.166;4.466;2022-10-16T17:06:04;9.07;;;2.72;;
25972;SDS011;13765;51.166;4.466;2022-10-16T17:08:36;8.30;;;2.25;;
25972;SDS011;13765;51.166;4.466;2022-10-16T17:11:02;7.40;;;2.70;;
25972;SDS011;13765;51.166;4.466;2022-10-16T17:13:32;7.07;;;2.15;;
25972;SDS011;13765;51.166;4.466;2022-10-16T17:16:02;4.30;;;2.15;;
25972;SDS011;13765;51.166;4.466;2022-10-16T17:18:29;9.10;;;2.67;;
25972;SDS011;13765;51.166;4.466;2022-10-16T17:20:58;7.40;;;2.75;;
25972;SDS011;13765;51.166;4.466;2022-10-16T17:23:30;7.47;;;2.75;;